ACA769 KBOS-CYYZ
Flight info
| Callsign | ACA769 |
|---|---|
| Flight time | 1h 22m |
| Altitude | 36000 |
| Route | HYLND7 HYLND CAM Q822 GONZZ WOZEE LINNG3 |
| Aircraft | A320/M-SDE3FGHIRWY/LB1 |
Departure
| Time | 2026-05-04 23:12 |
|---|---|
| Airport | Boston Logan International Airport (KBOS) |
Arrival
| Time | 2026-05-05 00:34 |
|---|---|
| Airport | Toronto Pearson International Airport (CYYZ) |
| Time | Latitude | Longitude | Altitude | Speed | Heading |
|---|---|---|---|---|---|
| 2026-05-04 22:31 | 42.36267 | -71.01986 | 31 ft | 0 kts | 116° |
| 2026-05-04 22:49 | 42.36274 | -71.02007 | 30 ft | 4 kts | 113° |
| 2026-05-04 22:49 | 42.36284 | -71.02034 | 31 ft | 4 kts | 123° |
| 2026-05-04 22:50 | 42.36299 | -71.02049 | 29 ft | 4 kts | 199° |
| 2026-05-04 22:50 | 42.36307 | -71.02046 | 31 ft | 4 kts | 212° |
| 2026-05-04 22:50 | 42.36293 | -71.02075 | 27 ft | 4 kts | 248° |
| 2026-05-04 22:50 | 42.36287 | -71.02103 | 28 ft | 1 kts | 254° |
| 2026-05-04 22:51 | 42.36287 | -71.02104 | 28 ft | 0 kts | 253° |
| 2026-05-04 22:53 | 42.36287 | -71.02105 | 28 ft | 1 kts | 253° |
| 2026-05-04 22:53 | 42.36281 | -71.02130 | 29 ft | 4 kts | 253° |
| 2026-05-04 22:53 | 42.36283 | -71.02170 | 25 ft | 4 kts | 292° |
| 2026-05-04 22:54 | 42.36294 | -71.02200 | 28 ft | 4 kts | 297° |
| 2026-05-04 22:54 | 42.36314 | -71.02248 | 25 ft | 6 kts | 299° |
| 2026-05-04 22:54 | 42.36318 | -71.02304 | 25 ft | 7 kts | 249° |
| 2026-05-04 22:54 | 42.36279 | -71.02340 | 29 ft | 8 kts | 185° |
| 2026-05-04 22:55 | 42.36221 | -71.02346 | 28 ft | 9 kts | 184° |
| 2026-05-04 22:55 | 42.36189 | -71.02349 | 28 ft | 0 kts | 184° |
| 2026-05-04 22:58 | 42.36187 | -71.02349 | 25 ft | 1 kts | 184° |
| 2026-05-04 22:59 | 42.36186 | -71.02349 | 25 ft | 0 kts | 184° |
| 2026-05-04 22:59 | 42.36177 | -71.02350 | 28 ft | 4 kts | 184° |
| 2026-05-04 22:59 | 42.36130 | -71.02349 | 28 ft | 9 kts | 168° |
| 2026-05-04 23:00 | 42.36070 | -71.02306 | 28 ft | 11 kts | 149° |
| 2026-05-04 23:00 | 42.36019 | -71.02226 | 27 ft | 11 kts | 121° |
| 2026-05-04 23:00 | 42.35981 | -71.02142 | 27 ft | 10 kts | 121° |
| 2026-05-04 23:00 | 42.35949 | -71.02069 | 27 ft | 8 kts | 121° |
| 2026-05-04 23:01 | 42.35922 | -71.02009 | 28 ft | 7 kts | 121° |
| 2026-05-04 23:01 | 42.35900 | -71.01960 | 20 ft | 5 kts | 121° |
| 2026-05-04 23:01 | 42.35883 | -71.01921 | 28 ft | 4 kts | 119° |
| 2026-05-04 23:01 | 42.35866 | -71.01877 | 27 ft | 8 kts | 116° |
| 2026-05-04 23:02 | 42.35848 | -71.01803 | 25 ft | 8 kts | 102° |
| 2026-05-04 23:02 | 42.35837 | -71.01734 | 25 ft | 7 kts | 102° |
| 2026-05-04 23:02 | 42.35828 | -71.01676 | 27 ft | 7 kts | 101° |
| 2026-05-04 23:02 | 42.35838 | -71.01581 | 27 ft | 11 kts | 42° |
| 2026-05-04 23:03 | 42.35906 | -71.01542 | 25 ft | 10 kts | 20° |
| 2026-05-04 23:03 | 42.35972 | -71.01510 | 28 ft | 12 kts | 19° |
| 2026-05-04 23:03 | 42.36059 | -71.01468 | 27 ft | 16 kts | 19° |
| 2026-05-04 23:03 | 42.36160 | -71.01419 | 28 ft | 16 kts | 20° |
| 2026-05-04 23:04 | 42.36257 | -71.01372 | 27 ft | 14 kts | 19° |
| 2026-05-04 23:04 | 42.36344 | -71.01331 | 25 ft | 12 kts | 19° |
| 2026-05-04 23:04 | 42.36423 | -71.01292 | 29 ft | 12 kts | 20° |
| 2026-05-04 23:04 | 42.36504 | -71.01253 | 25 ft | 13 kts | 19° |
| 2026-05-04 23:05 | 42.36581 | -71.01216 | 25 ft | 11 kts | 19° |
| 2026-05-04 23:05 | 42.36652 | -71.01181 | 28 ft | 11 kts | 19° |
| 2026-05-04 23:05 | 42.36719 | -71.01149 | 28 ft | 10 kts | 19° |
| 2026-05-04 23:05 | 42.36802 | -71.01167 | 27 ft | 16 kts | 325° |
| 2026-05-04 23:06 | 42.36889 | -71.01220 | 27 ft | 13 kts | 15° |
| 2026-05-04 23:06 | 42.36953 | -71.01146 | 27 ft | 11 kts | 44° |
| 2026-05-04 23:06 | 42.37015 | -71.01093 | 28 ft | 10 kts | 26° |
| 2026-05-04 23:06 | 42.37076 | -71.01054 | 25 ft | 10 kts | 26° |
| 2026-05-04 23:07 | 42.37144 | -71.01008 | 25 ft | 11 kts | 26° |
| 2026-05-04 23:07 | 42.37210 | -71.00966 | 27 ft | 11 kts | 25° |
| 2026-05-04 23:07 | 42.37275 | -71.00924 | 25 ft | 10 kts | 25° |
| 2026-05-04 23:07 | 42.37337 | -71.00891 | 26 ft | 10 kts | 19° |
| 2026-05-04 23:08 | 42.37400 | -71.00861 | 27 ft | 9 kts | 19° |
| 2026-05-04 23:08 | 42.37459 | -71.00831 | 25 ft | 11 kts | 20° |
| 2026-05-04 23:08 | 42.37549 | -71.00787 | 25 ft | 15 kts | 20° |
| 2026-05-04 23:08 | 42.37643 | -71.00742 | 26 ft | 14 kts | 19° |
| 2026-05-04 23:09 | 42.37725 | -71.00703 | 28 ft | 9 kts | 19° |
| 2026-05-04 23:09 | 42.37782 | -71.00675 | 27 ft | 9 kts | 19° |
| 2026-05-04 23:09 | 42.37830 | -71.00639 | 27 ft | 8 kts | 50° |
| 2026-05-04 23:09 | 42.37836 | -71.00596 | 27 ft | 3 kts | 103° |
| 2026-05-04 23:10 | 42.37831 | -71.00570 | 26 ft | 2 kts | 103° |
| 2026-05-04 23:10 | 42.37820 | -71.00525 | 25 ft | 11 kts | 115° |
| 2026-05-04 23:10 | 42.37754 | -71.00493 | 27 ft | 10 kts | 198° |
| 2026-05-04 23:10 | 42.37751 | -71.00495 | 27 ft | 0 kts | 199° |
| 2026-05-04 23:11 | 42.37713 | -71.00512 | 28 ft | 18 kts | 199° |
| 2026-05-04 23:11 | 42.37357 | -71.00684 | 28 ft | 88 kts | 199° |
| 2026-05-04 23:11 | 42.36591 | -71.01054 | 31 ft | 142 kts | 200° |
| 2026-05-04 23:11 | 42.35635 | -71.01514 | 562 ft | 145 kts | 200° |
| 2026-05-04 23:12 | 42.34643 | -71.01817 | 1196 ft | 152 kts | 180° |
| 2026-05-04 23:12 | 42.33657 | -71.01215 | 1799 ft | 172 kts | 143° |
| 2026-05-04 23:12 | 42.32853 | -70.99841 | 2144 ft | 196 kts | 135° |
| 2026-05-04 23:12 | 42.31987 | -70.98307 | 2536 ft | 214 kts | 133° |
| 2026-05-04 23:13 | 42.31207 | -70.96458 | 2943 ft | 240 kts | 114° |
| 2026-05-04 23:13 | 42.30958 | -70.94107 | 3368 ft | 270 kts | 88° |
| 2026-05-04 23:13 | 42.31292 | -70.91518 | 3916 ft | 288 kts | 77° |
| 2026-05-04 23:13 | 42.31829 | -70.88886 | 4774 ft | 293 kts | 74° |
| 2026-05-04 23:14 | 42.32383 | -70.86223 | 5657 ft | 296 kts | 73° |
| 2026-05-04 23:14 | 42.32907 | -70.83506 | 6529 ft | 300 kts | 75° |
| 2026-05-04 23:14 | 42.33395 | -70.80746 | 7365 ft | 303 kts | 73° |
| 2026-05-04 23:14 | 42.34195 | -70.78123 | 8205 ft | 301 kts | 53° |
| 2026-05-04 23:15 | 42.35585 | -70.76065 | 9076 ft | 294 kts | 31° |
| 2026-05-04 23:15 | 42.37353 | -70.74875 | 9933 ft | 285 kts | 9° |
| 2026-05-04 23:15 | 42.39318 | -70.74623 | 10698 ft | 279 kts | 348° |
| 2026-05-04 23:15 | 42.41164 | -70.75322 | 11390 ft | 276 kts | 329° |
| 2026-05-04 23:16 | 42.42747 | -70.76856 | 11737 ft | 289 kts | 310° |
| 2026-05-04 23:16 | 42.44133 | -70.78960 | 11911 ft | 311 kts | 308° |
| 2026-05-04 23:16 | 42.45606 | -70.81216 | 12310 ft | 325 kts | 309° |
| 2026-05-04 23:16 | 42.47109 | -70.83504 | 12947 ft | 331 kts | 309° |
| 2026-05-04 23:17 | 42.48667 | -70.85832 | 13621 ft | 336 kts | 309° |
| 2026-05-04 23:17 | 42.50283 | -70.88144 | 14228 ft | 340 kts | 310° |
| 2026-05-04 23:17 | 42.51946 | -70.90467 | 14842 ft | 344 kts | 311° |
| 2026-05-04 23:17 | 42.53630 | -70.92803 | 15494 ft | 347 kts | 311° |
| 2026-05-04 23:18 | 42.55318 | -70.95152 | 16153 ft | 349 kts | 311° |
| 2026-05-04 23:18 | 42.57011 | -70.97521 | 16808 ft | 351 kts | 311° |
| 2026-05-04 23:18 | 42.58711 | -70.99916 | 17475 ft | 353 kts | 311° |
| 2026-05-04 23:18 | 42.60414 | -71.02327 | 18121 ft | 355 kts | 310° |
| 2026-05-04 23:19 | 42.62129 | -71.04766 | 18682 ft | 358 kts | 311° |
| 2026-05-04 23:19 | 42.63851 | -71.07221 | 19280 ft | 360 kts | 311° |
| 2026-05-04 23:19 | 42.65560 | -71.09658 | 19854 ft | 361 kts | 311° |
| 2026-05-04 23:19 | 42.67303 | -71.12139 | 20446 ft | 364 kts | 311° |
| 2026-05-04 23:20 | 42.69056 | -71.14636 | 20993 ft | 366 kts | 311° |
| 2026-05-04 23:20 | 42.70819 | -71.17147 | 21541 ft | 369 kts | 311° |
| 2026-05-04 23:20 | 42.72594 | -71.19677 | 22076 ft | 371 kts | 311° |
| 2026-05-04 23:20 | 42.74380 | -71.22228 | 22599 ft | 373 kts | 311° |
| 2026-05-04 23:21 | 42.76124 | -71.24855 | 23089 ft | 375 kts | 306° |
| 2026-05-04 23:21 | 42.77514 | -71.27866 | 23521 ft | 377 kts | 296° |
| 2026-05-04 23:21 | 42.78432 | -71.31205 | 23942 ft | 379 kts | 285° |
| 2026-05-04 23:21 | 42.78906 | -71.34744 | 24359 ft | 381 kts | 280° |
| 2026-05-04 23:22 | 42.79304 | -71.38319 | 24775 ft | 382 kts | 280° |
| 2026-05-04 23:22 | 42.79704 | -71.41915 | 25179 ft | 384 kts | 281° |
| 2026-05-04 23:22 | 42.80102 | -71.45508 | 25574 ft | 385 kts | 281° |
| 2026-05-04 23:22 | 42.80502 | -71.49119 | 25962 ft | 386 kts | 281° |
| 2026-05-04 23:23 | 42.80903 | -71.52743 | 26344 ft | 388 kts | 281° |
| 2026-05-04 23:23 | 42.81301 | -71.56377 | 26715 ft | 389 kts | 281° |
| 2026-05-04 23:23 | 42.81701 | -71.60035 | 27079 ft | 391 kts | 281° |
| 2026-05-04 23:23 | 42.82102 | -71.63711 | 27441 ft | 392 kts | 281° |
| 2026-05-04 23:24 | 42.82503 | -71.67386 | 27796 ft | 393 kts | 281° |
| 2026-05-04 23:24 | 42.82907 | -71.71080 | 28144 ft | 395 kts | 281° |
| 2026-05-04 23:24 | 42.83313 | -71.74785 | 28477 ft | 396 kts | 281° |
| 2026-05-04 23:24 | 42.83718 | -71.78510 | 28818 ft | 398 kts | 281° |
| 2026-05-04 23:25 | 42.84121 | -71.82241 | 29124 ft | 399 kts | 281° |
| 2026-05-04 23:25 | 42.84523 | -71.85997 | 29429 ft | 400 kts | 281° |
| 2026-05-04 23:25 | 42.84923 | -71.89755 | 29716 ft | 402 kts | 281° |
| 2026-05-04 23:25 | 42.85324 | -71.93531 | 29960 ft | 404 kts | 282° |
| 2026-05-04 23:26 | 42.85730 | -71.97342 | 30165 ft | 406 kts | 282° |
| 2026-05-04 23:26 | 42.86129 | -72.01108 | 30369 ft | 407 kts | 282° |
| 2026-05-04 23:26 | 42.86532 | -72.04939 | 30653 ft | 407 kts | 282° |
| 2026-05-04 23:26 | 42.86933 | -72.08744 | 30948 ft | 406 kts | 282° |
| 2026-05-04 23:27 | 42.87333 | -72.12555 | 31244 ft | 405 kts | 282° |
| 2026-05-04 23:27 | 42.87729 | -72.16352 | 31547 ft | 405 kts | 282° |
| 2026-05-04 23:27 | 42.88124 | -72.20149 | 31850 ft | 404 kts | 282° |
| 2026-05-04 23:27 | 42.88516 | -72.23938 | 32147 ft | 403 kts | 282° |
| 2026-05-04 23:28 | 42.88908 | -72.27728 | 32419 ft | 403 kts | 282° |
| 2026-05-04 23:28 | 42.89299 | -72.31506 | 32697 ft | 402 kts | 282° |
| 2026-05-04 23:28 | 42.89557 | -72.34010 | 32890 ft | 402 kts | 282° |
| 2026-05-04 23:28 | 42.89929 | -72.37627 | 33168 ft | 401 kts | 283° |
| 2026-05-04 23:29 | 42.90314 | -72.41395 | 33459 ft | 401 kts | 283° |
| 2026-05-04 23:29 | 42.90698 | -72.45161 | 33772 ft | 400 kts | 283° |
| 2026-05-04 23:29 | 42.91079 | -72.48914 | 34025 ft | 400 kts | 283° |
| 2026-05-04 23:29 | 42.91459 | -72.52671 | 34245 ft | 400 kts | 282° |
| 2026-05-04 23:30 | 42.91841 | -72.56430 | 34479 ft | 400 kts | 282° |
| 2026-05-04 23:30 | 42.92223 | -72.60194 | 34688 ft | 400 kts | 282° |
| 2026-05-04 23:30 | 42.92605 | -72.63962 | 34891 ft | 401 kts | 282° |
| 2026-05-04 23:30 | 42.92983 | -72.67722 | 35092 ft | 401 kts | 281° |
| 2026-05-04 23:31 | 42.93488 | -72.72811 | 35382 ft | 401 kts | 281° |
| 2026-05-04 23:31 | 42.93861 | -72.76580 | 35543 ft | 402 kts | 281° |
| 2026-05-04 23:31 | 42.94235 | -72.80369 | 35724 ft | 402 kts | 281° |
| 2026-05-04 23:32 | 42.94983 | -72.87968 | 35820 ft | 404 kts | 281° |
| 2026-05-04 23:32 | 42.95721 | -72.95574 | 35815 ft | 404 kts | 281° |
| 2026-05-04 23:33 | 42.96454 | -73.03172 | 35813 ft | 404 kts | 280° |
| 2026-05-04 23:33 | 42.97188 | -73.10780 | 35811 ft | 404 kts | 280° |
| 2026-05-04 23:34 | 42.97916 | -73.18348 | 35804 ft | 404 kts | 280° |
| 2026-05-04 23:34 | 42.98639 | -73.25949 | 35784 ft | 404 kts | 280° |
| 2026-05-04 23:35 | 42.99354 | -73.33564 | 35785 ft | 404 kts | 279° |
| 2026-05-04 23:35 | 42.99610 | -73.41276 | 35793 ft | 406 kts | 275° |
| 2026-05-04 23:36 | 42.99800 | -73.49001 | 35796 ft | 406 kts | 275° |
| 2026-05-04 23:36 | 42.99984 | -73.56714 | 35797 ft | 406 kts | 275° |
| 2026-05-04 23:37 | 43.00163 | -73.64429 | 35795 ft | 406 kts | 275° |
| 2026-05-04 23:37 | 43.00340 | -73.72085 | 35792 ft | 406 kts | 275° |
| 2026-05-04 23:38 | 43.00509 | -73.79833 | 35793 ft | 405 kts | 275° |
| 2026-05-04 23:38 | 43.00672 | -73.87469 | 35792 ft | 405 kts | 275° |
| 2026-05-04 23:39 | 43.00834 | -73.95159 | 35795 ft | 405 kts | 275° |
| 2026-05-04 23:39 | 43.00985 | -74.02840 | 35791 ft | 405 kts | 275° |
| 2026-05-04 23:40 | 43.01130 | -74.10526 | 35793 ft | 405 kts | 275° |
| 2026-05-04 23:40 | 43.01275 | -74.18214 | 35796 ft | 404 kts | 274° |
| 2026-05-04 23:41 | 43.01417 | -74.25900 | 35795 ft | 404 kts | 275° |
| 2026-05-04 23:41 | 43.01704 | -74.33558 | 35794 ft | 403 kts | 277° |
| 2026-05-04 23:42 | 43.02101 | -74.41198 | 35786 ft | 403 kts | 277° |
| 2026-05-04 23:42 | 43.02477 | -74.48827 | 35790 ft | 403 kts | 276° |
| 2026-05-04 23:43 | 43.02812 | -74.56467 | 35789 ft | 403 kts | 276° |
| 2026-05-04 23:43 | 43.03130 | -74.64108 | 35789 ft | 403 kts | 276° |
| 2026-05-04 23:44 | 43.03449 | -74.71758 | 35790 ft | 403 kts | 276° |
| 2026-05-04 23:44 | 43.03767 | -74.79355 | 35789 ft | 403 kts | 276° |
| 2026-05-04 23:45 | 43.04087 | -74.87047 | 35786 ft | 403 kts | 276° |
| 2026-05-04 23:45 | 43.04400 | -74.94686 | 35785 ft | 403 kts | 276° |
| 2026-05-04 23:46 | 43.04706 | -75.02329 | 35782 ft | 402 kts | 276° |
| 2026-05-04 23:46 | 43.05001 | -75.09916 | 35754 ft | 402 kts | 275° |
| 2026-05-04 23:47 | 43.05297 | -75.17558 | 35753 ft | 402 kts | 275° |
| 2026-05-04 23:47 | 43.05581 | -75.25201 | 35759 ft | 402 kts | 275° |
| 2026-05-04 23:48 | 43.05851 | -75.32837 | 35763 ft | 402 kts | 275° |
| 2026-05-04 23:48 | 43.06070 | -75.40500 | 35762 ft | 403 kts | 275° |
| 2026-05-04 23:49 | 43.06273 | -75.48145 | 35768 ft | 402 kts | 275° |
| 2026-05-04 23:49 | 43.06478 | -75.55792 | 35769 ft | 402 kts | 275° |
| 2026-05-04 23:50 | 43.06682 | -75.63436 | 35773 ft | 402 kts | 274° |
| 2026-05-04 23:50 | 43.06879 | -75.71083 | 35768 ft | 402 kts | 274° |
| 2026-05-04 23:51 | 43.07067 | -75.78734 | 35757 ft | 402 kts | 274° |
| 2026-05-04 23:51 | 43.07254 | -75.86357 | 35759 ft | 401 kts | 274° |
| 2026-05-04 23:52 | 43.07436 | -75.93934 | 35750 ft | 400 kts | 274° |
| 2026-05-04 23:52 | 43.07614 | -76.01548 | 35748 ft | 400 kts | 274° |
| 2026-05-04 23:53 | 43.07783 | -76.09089 | 35743 ft | 400 kts | 274° |
| 2026-05-04 23:53 | 43.07951 | -76.16691 | 35744 ft | 399 kts | 274° |
| 2026-05-04 23:54 | 43.08110 | -76.24294 | 35743 ft | 399 kts | 274° |
| 2026-05-04 23:54 | 43.08264 | -76.31885 | 35744 ft | 399 kts | 274° |
| 2026-05-04 23:55 | 43.08415 | -76.39485 | 35743 ft | 399 kts | 274° |
| 2026-05-04 23:56 | 43.08626 | -76.50883 | 35735 ft | 399 kts | 274° |
| 2026-05-04 23:56 | 43.08767 | -76.58483 | 35738 ft | 399 kts | 274° |
| 2026-05-04 23:57 | 43.08897 | -76.66057 | 35733 ft | 399 kts | 274° |
| 2026-05-04 23:57 | 43.08617 | -76.73603 | 35733 ft | 400 kts | 267° |
| 2026-05-04 23:58 | 43.08095 | -76.81195 | 35733 ft | 400 kts | 267° |
| 2026-05-04 23:58 | 43.07573 | -76.88773 | 35739 ft | 400 kts | 267° |
| 2026-05-04 23:59 | 43.07054 | -76.96362 | 35725 ft | 401 kts | 267° |
| 2026-05-04 23:59 | 43.06791 | -77.00158 | 35508 ft | 401 kts | 267° |
| 2026-05-04 23:59 | 43.06529 | -77.03947 | 35255 ft | 400 kts | 267° |
| 2026-05-04 23:59 | 43.06266 | -77.07739 | 35003 ft | 400 kts | 267° |
| 2026-05-05 00:00 | 43.06003 | -77.11526 | 34750 ft | 400 kts | 268° |
| 2026-05-05 00:00 | 43.05472 | -77.19108 | 34264 ft | 401 kts | 268° |
| 2026-05-05 00:00 | 43.05198 | -77.22904 | 34027 ft | 401 kts | 268° |
| 2026-05-05 00:01 | 43.04918 | -77.26699 | 33788 ft | 401 kts | 267° |
| 2026-05-05 00:01 | 43.04638 | -77.30510 | 33518 ft | 401 kts | 267° |
| 2026-05-05 00:01 | 43.04364 | -77.34313 | 33247 ft | 402 kts | 267° |
| 2026-05-05 00:01 | 43.04092 | -77.38113 | 32969 ft | 403 kts | 267° |
| 2026-05-05 00:02 | 43.03821 | -77.41877 | 32700 ft | 404 kts | 267° |
| 2026-05-05 00:02 | 43.03538 | -77.45744 | 32382 ft | 405 kts | 267° |
| 2026-05-05 00:02 | 43.03254 | -77.49581 | 31920 ft | 406 kts | 266° |
| 2026-05-05 00:02 | 43.02972 | -77.53412 | 31434 ft | 405 kts | 266° |
| 2026-05-05 00:03 | 43.02693 | -77.57180 | 30946 ft | 403 kts | 266° |
| 2026-05-05 00:03 | 43.02409 | -77.60981 | 30481 ft | 400 kts | 265° |
| 2026-05-05 00:03 | 43.02125 | -77.64745 | 30013 ft | 397 kts | 265° |
| 2026-05-05 00:03 | 43.01841 | -77.68483 | 29499 ft | 394 kts | 265° |
| 2026-05-05 00:04 | 43.01560 | -77.72188 | 28971 ft | 391 kts | 265° |
| 2026-05-05 00:04 | 43.01281 | -77.75868 | 28440 ft | 387 kts | 265° |
| 2026-05-05 00:04 | 43.01002 | -77.79505 | 27921 ft | 383 kts | 265° |
| 2026-05-05 00:04 | 43.00723 | -77.83115 | 27409 ft | 380 kts | 265° |
| 2026-05-05 00:05 | 43.00444 | -77.86689 | 26910 ft | 376 kts | 265° |
| 2026-05-05 00:05 | 43.00168 | -77.90230 | 26422 ft | 373 kts | 265° |
| 2026-05-05 00:05 | 42.99893 | -77.93742 | 25940 ft | 370 kts | 265° |
| 2026-05-05 00:05 | 42.99620 | -77.97217 | 25452 ft | 367 kts | 265° |
| 2026-05-05 00:06 | 42.99351 | -78.00672 | 25030 ft | 365 kts | 265° |
| 2026-05-05 00:06 | 42.99086 | -78.04110 | 24619 ft | 362 kts | 265° |
| 2026-05-05 00:06 | 42.98824 | -78.07518 | 24215 ft | 360 kts | 265° |
| 2026-05-05 00:06 | 42.98558 | -78.10903 | 23815 ft | 357 kts | 264° |
| 2026-05-05 00:07 | 42.98288 | -78.14265 | 23407 ft | 355 kts | 264° |
| 2026-05-05 00:07 | 42.98016 | -78.17602 | 22971 ft | 352 kts | 264° |
| 2026-05-05 00:07 | 42.97749 | -78.20927 | 22510 ft | 350 kts | 264° |
| 2026-05-05 00:07 | 42.97484 | -78.24222 | 22059 ft | 348 kts | 264° |
| 2026-05-05 00:08 | 42.97222 | -78.27492 | 21601 ft | 346 kts | 264° |
| 2026-05-05 00:08 | 42.96961 | -78.30752 | 21155 ft | 344 kts | 264° |
| 2026-05-05 00:08 | 42.96702 | -78.33943 | 20739 ft | 342 kts | 264° |
| 2026-05-05 00:08 | 42.96437 | -78.37164 | 20357 ft | 340 kts | 264° |
| 2026-05-05 00:09 | 42.96170 | -78.40409 | 19974 ft | 339 kts | 264° |
| 2026-05-05 00:09 | 42.95909 | -78.43556 | 19607 ft | 337 kts | 264° |
| 2026-05-05 00:09 | 42.95640 | -78.46771 | 19232 ft | 336 kts | 264° |
| 2026-05-05 00:09 | 42.95465 | -78.48868 | 18987 ft | 335 kts | 264° |
| 2026-05-05 00:10 | 42.95119 | -78.53041 | 18534 ft | 333 kts | 263° |
| 2026-05-05 00:10 | 42.94861 | -78.56174 | 18172 ft | 332 kts | 263° |
| 2026-05-05 00:10 | 42.94601 | -78.59292 | 17801 ft | 330 kts | 263° |
| 2026-05-05 00:10 | 42.94342 | -78.62402 | 17392 ft | 328 kts | 263° |
| 2026-05-05 00:11 | 42.94087 | -78.65484 | 17123 ft | 326 kts | 263° |
| 2026-05-05 00:11 | 42.93918 | -78.67524 | 17045 ft | 325 kts | 264° |
| 2026-05-05 00:11 | 42.93892 | -78.70601 | 17066 ft | 326 kts | 274° |
| 2026-05-05 00:11 | 42.94330 | -78.73646 | 17068 ft | 328 kts | 285° |
| 2026-05-05 00:12 | 42.95228 | -78.76521 | 17043 ft | 332 kts | 296° |
| 2026-05-05 00:12 | 42.96557 | -78.79123 | 17042 ft | 336 kts | 305° |
| 2026-05-05 00:12 | 42.98050 | -78.81581 | 17040 ft | 337 kts | 305° |
| 2026-05-05 00:12 | 42.99542 | -78.84050 | 17039 ft | 337 kts | 305° |
| 2026-05-05 00:13 | 43.01029 | -78.86520 | 17039 ft | 337 kts | 305° |
| 2026-05-05 00:13 | 43.02514 | -78.88994 | 17040 ft | 337 kts | 305° |
| 2026-05-05 00:13 | 43.03998 | -78.91470 | 17041 ft | 336 kts | 305° |
| 2026-05-05 00:13 | 43.05483 | -78.93945 | 17040 ft | 336 kts | 305° |
| 2026-05-05 00:14 | 43.06968 | -78.96418 | 17041 ft | 337 kts | 305° |
| 2026-05-05 00:14 | 43.08456 | -78.98898 | 16937 ft | 337 kts | 305° |
| 2026-05-05 00:14 | 43.09940 | -79.01372 | 16674 ft | 335 kts | 305° |
| 2026-05-05 00:14 | 43.11414 | -79.03827 | 16430 ft | 333 kts | 304° |
| 2026-05-05 00:15 | 43.12880 | -79.06275 | 16166 ft | 332 kts | 304° |
| 2026-05-05 00:15 | 43.14340 | -79.08717 | 15914 ft | 330 kts | 304° |
| 2026-05-05 00:15 | 43.15794 | -79.11146 | 15662 ft | 329 kts | 304° |
| 2026-05-05 00:15 | 43.17240 | -79.13560 | 15409 ft | 327 kts | 304° |
| 2026-05-05 00:16 | 43.18659 | -79.15938 | 15160 ft | 326 kts | 304° |
| 2026-05-05 00:16 | 43.20087 | -79.18335 | 14924 ft | 324 kts | 304° |
| 2026-05-05 00:16 | 43.21510 | -79.20727 | 14674 ft | 323 kts | 304° |
| 2026-05-05 00:16 | 43.22925 | -79.23102 | 14431 ft | 320 kts | 304° |
| 2026-05-05 00:17 | 43.24321 | -79.25442 | 14070 ft | 315 kts | 304° |
| 2026-05-05 00:17 | 43.25703 | -79.27762 | 13669 ft | 313 kts | 304° |
| 2026-05-05 00:17 | 43.27072 | -79.30067 | 13216 ft | 311 kts | 304° |
| 2026-05-05 00:17 | 43.28433 | -79.32359 | 12761 ft | 308 kts | 304° |
| 2026-05-05 00:18 | 43.29847 | -79.34553 | 12449 ft | 305 kts | 312° |
| 2026-05-05 00:18 | 43.31554 | -79.36258 | 12316 ft | 301 kts | 324° |
| 2026-05-05 00:18 | 43.33425 | -79.37488 | 12168 ft | 294 kts | 328° |
| 2026-05-05 00:18 | 43.35260 | -79.38654 | 11920 ft | 289 kts | 328° |
| 2026-05-05 00:19 | 43.37076 | -79.39818 | 11561 ft | 287 kts | 328° |
| 2026-05-05 00:19 | 43.38886 | -79.40986 | 11184 ft | 286 kts | 328° |
| 2026-05-05 00:19 | 43.40687 | -79.42149 | 10804 ft | 286 kts | 328° |
| 2026-05-05 00:19 | 43.42462 | -79.43295 | 10438 ft | 285 kts | 328° |
| 2026-05-05 00:20 | 43.44261 | -79.44453 | 10065 ft | 285 kts | 328° |
| 2026-05-05 00:20 | 43.46057 | -79.45607 | 9680 ft | 285 kts | 328° |
| 2026-05-05 00:20 | 43.47852 | -79.46760 | 9313 ft | 283 kts | 328° |
| 2026-05-05 00:20 | 43.49623 | -79.47898 | 9174 ft | 270 kts | 328° |
| 2026-05-05 00:21 | 43.51256 | -79.48945 | 8786 ft | 260 kts | 327° |
| 2026-05-05 00:21 | 43.52892 | -79.50004 | 8223 ft | 257 kts | 327° |
| 2026-05-05 00:21 | 43.54463 | -79.51016 | 8026 ft | 244 kts | 327° |
| 2026-05-05 00:21 | 43.55982 | -79.51993 | 7887 ft | 237 kts | 327° |
| 2026-05-05 00:22 | 43.57453 | -79.52919 | 7727 ft | 231 kts | 331° |
| 2026-05-05 00:22 | 43.59073 | -79.53284 | 7588 ft | 240 kts | 357° |
| 2026-05-05 00:22 | 43.60681 | -79.52625 | 7398 ft | 251 kts | 27° |
| 2026-05-05 00:22 | 43.61985 | -79.51033 | 7248 ft | 248 kts | 44° |
| 2026-05-05 00:23 | 43.63154 | -79.49317 | 7100 ft | 244 kts | 44° |
| 2026-05-05 00:23 | 43.64316 | -79.47618 | 6955 ft | 243 kts | 44° |
| 2026-05-05 00:23 | 43.65476 | -79.45930 | 6815 ft | 242 kts | 44° |
| 2026-05-05 00:23 | 43.66630 | -79.44248 | 6673 ft | 240 kts | 44° |
| 2026-05-05 00:24 | 43.67762 | -79.42595 | 6510 ft | 245 kts | 45° |
| 2026-05-05 00:24 | 43.68959 | -79.40849 | 6389 ft | 247 kts | 45° |
| 2026-05-05 00:24 | 43.70126 | -79.39138 | 6225 ft | 243 kts | 45° |
| 2026-05-05 00:24 | 43.71285 | -79.37436 | 6084 ft | 243 kts | 45° |
| 2026-05-05 00:25 | 43.72445 | -79.35736 | 5936 ft | 242 kts | 45° |
| 2026-05-05 00:25 | 43.73603 | -79.34042 | 5751 ft | 242 kts | 45° |
| 2026-05-05 00:25 | 43.74756 | -79.32355 | 5497 ft | 241 kts | 45° |
| 2026-05-05 00:25 | 43.75903 | -79.30674 | 5241 ft | 240 kts | 45° |
| 2026-05-05 00:26 | 43.77055 | -79.29019 | 4989 ft | 238 kts | 39° |
| 2026-05-05 00:26 | 43.78448 | -79.28046 | 4873 ft | 213 kts | 0° |
| 2026-05-05 00:26 | 43.79793 | -79.28274 | 4738 ft | 184 kts | 327° |
| 2026-05-05 00:26 | 43.80859 | -79.29060 | 4599 ft | 163 kts | 309° |
| 2026-05-05 00:27 | 43.81585 | -79.30179 | 4214 ft | 153 kts | 279° |
| 2026-05-05 00:27 | 43.81724 | -79.31597 | 3831 ft | 149 kts | 262° |
| 2026-05-05 00:27 | 43.81691 | -79.33034 | 3531 ft | 149 kts | 260° |
| 2026-05-05 00:27 | 43.81641 | -79.34464 | 3239 ft | 149 kts | 259° |
| 2026-05-05 00:28 | 43.81598 | -79.35889 | 3040 ft | 147 kts | 259° |
| 2026-05-05 00:28 | 43.81566 | -79.37309 | 3000 ft | 147 kts | 259° |
| 2026-05-05 00:28 | 43.81540 | -79.38731 | 3004 ft | 148 kts | 259° |
| 2026-05-05 00:28 | 43.81294 | -79.40064 | 3003 ft | 141 kts | 236° |
| 2026-05-05 00:29 | 43.80671 | -79.41086 | 3006 ft | 138 kts | 226° |
| 2026-05-05 00:29 | 43.80010 | -79.42053 | 3003 ft | 140 kts | 227° |
| 2026-05-05 00:29 | 43.79339 | -79.43035 | 3008 ft | 141 kts | 226° |
| 2026-05-05 00:29 | 43.78657 | -79.44033 | 3005 ft | 143 kts | 226° |
| 2026-05-05 00:30 | 43.77971 | -79.45037 | 3006 ft | 144 kts | 226° |
| 2026-05-05 00:30 | 43.77297 | -79.46022 | 3019 ft | 141 kts | 226° |
| 2026-05-05 00:30 | 43.76622 | -79.47009 | 2948 ft | 141 kts | 226° |
| 2026-05-05 00:30 | 43.75946 | -79.47997 | 2810 ft | 142 kts | 225° |
| 2026-05-05 00:31 | 43.75277 | -79.48975 | 2647 ft | 136 kts | 225° |
| 2026-05-05 00:31 | 43.74637 | -79.49909 | 2478 ft | 132 kts | 225° |
| 2026-05-05 00:31 | 43.74007 | -79.50829 | 2300 ft | 130 kts | 225° |
| 2026-05-05 00:31 | 43.73390 | -79.51730 | 2133 ft | 129 kts | 225° |
| 2026-05-05 00:32 | 43.72770 | -79.52635 | 1959 ft | 130 kts | 224° |
| 2026-05-05 00:32 | 43.72151 | -79.53537 | 1785 ft | 128 kts | 225° |
| 2026-05-05 00:32 | 43.71534 | -79.54437 | 1618 ft | 129 kts | 224° |
| 2026-05-05 00:32 | 43.70914 | -79.55341 | 1442 ft | 129 kts | 224° |
| 2026-05-05 00:33 | 43.70297 | -79.56236 | 1270 ft | 129 kts | 226° |
| 2026-05-05 00:33 | 43.69683 | -79.57131 | 1105 ft | 129 kts | 225° |
| 2026-05-05 00:33 | 43.69072 | -79.58021 | 935 ft | 129 kts | 224° |
| 2026-05-05 00:33 | 43.68464 | -79.58912 | 762 ft | 130 kts | 224° |
| 2026-05-05 00:34 | 43.67846 | -79.59810 | 622 ft | 128 kts | 225° |
| 2026-05-05 00:34 | 43.67269 | -79.60647 | 562 ft | 107 kts | 226° |
| 2026-05-05 00:34 | 43.66847 | -79.61258 | 569 ft | 64 kts | 225° |
| 2026-05-05 00:34 | 43.66620 | -79.61586 | 561 ft | 37 kts | 231° |
| 2026-05-05 00:35 | 43.66547 | -79.61828 | 563 ft | 15 kts | 255° |
| 2026-05-05 00:35 | 43.66574 | -79.61954 | 559 ft | 13 kts | 315° |
| 2026-05-05 00:35 | 43.66583 | -79.61966 | 563 ft | 0 kts | 315° |
| 2026-05-05 00:36 | 43.66584 | -79.61968 | 563 ft | 2 kts | 315° |
| 2026-05-05 00:36 | 43.66609 | -79.62000 | 562 ft | 6 kts | 320° |
| 2026-05-05 00:36 | 43.66623 | -79.62016 | 572 ft | 0 kts | 321° |
| 2026-05-05 00:36 | 43.66634 | -79.62020 | 571 ft | 7 kts | 351° |
| 2026-05-05 00:37 | 43.66698 | -79.61970 | 573 ft | 11 kts | 41° |
| 2026-05-05 00:37 | 43.66749 | -79.61908 | 571 ft | 9 kts | 41° |
| 2026-05-05 00:37 | 43.66792 | -79.61854 | 567 ft | 8 kts | 43° |
| 2026-05-05 00:37 | 43.66827 | -79.61809 | 569 ft | 7 kts | 43° |
| 2026-05-05 00:38 | 43.66863 | -79.61764 | 567 ft | 8 kts | 42° |
| 2026-05-05 00:38 | 43.66917 | -79.61695 | 569 ft | 10 kts | 42° |
| 2026-05-05 00:38 | 43.66967 | -79.61633 | 569 ft | 9 kts | 42° |
| 2026-05-05 00:38 | 43.67010 | -79.61578 | 574 ft | 8 kts | 42° |
| 2026-05-05 00:39 | 43.67043 | -79.61537 | 571 ft | 5 kts | 42° |
| 2026-05-05 00:39 | 43.67065 | -79.61511 | 573 ft | 5 kts | 42° |
| 2026-05-05 00:39 | 43.67107 | -79.61459 | 569 ft | 10 kts | 41° |
| 2026-05-05 00:39 | 43.67162 | -79.61391 | 571 ft | 11 kts | 43° |
| 2026-05-05 00:40 | 43.67207 | -79.61312 | 569 ft | 11 kts | 53° |
| 2026-05-05 00:40 | 43.67266 | -79.61261 | 567 ft | 11 kts | 345° |
| 2026-05-05 00:40 | 43.67323 | -79.61323 | 561 ft | 10 kts | 316° |
| 2026-05-05 00:40 | 43.67368 | -79.61381 | 562 ft | 8 kts | 317° |
| 2026-05-05 00:41 | 43.67410 | -79.61436 | 563 ft | 9 kts | 317° |
| 2026-05-05 00:41 | 43.67450 | -79.61487 | 563 ft | 7 kts | 317° |
| 2026-05-05 00:41 | 43.67483 | -79.61530 | 563 ft | 6 kts | 316° |
| 2026-05-05 00:41 | 43.67510 | -79.61567 | 563 ft | 5 kts | 316° |
| 2026-05-05 00:42 | 43.67544 | -79.61612 | 563 ft | 9 kts | 316° |
| 2026-05-05 00:42 | 43.67588 | -79.61666 | 573 ft | 8 kts | 326° |
| 2026-05-05 00:42 | 43.67636 | -79.61663 | 565 ft | 8 kts | 28° |
| 2026-05-05 00:42 | 43.67691 | -79.61649 | 567 ft | 8 kts | 341° |
| 2026-05-05 00:43 | 43.67741 | -79.61651 | 563 ft | 7 kts | 24° |
| 2026-05-05 00:43 | 43.67776 | -79.61608 | 566 ft | 7 kts | 44° |
| 2026-05-05 00:43 | 43.67807 | -79.61567 | 563 ft | 6 kts | 44° |
| 2026-05-05 00:43 | 43.67830 | -79.61531 | 567 ft | 4 kts | 48° |
| 2026-05-05 00:44 | 43.67849 | -79.61503 | 563 ft | 4 kts | 38° |
| 2026-05-05 00:44 | 43.67873 | -79.61509 | 566 ft | 3 kts | 329° |
| 2026-05-05 00:44 | 43.67887 | -79.61525 | 569 ft | 2 kts | 317° |
| 2026-05-05 00:44 | 43.67896 | -79.61537 | 565 ft | 1 kts | 317° |
| 2026-05-05 00:45 | 43.67900 | -79.61543 | 566 ft | 0 kts | 317° |
| 2026-05-05 00:45 | 43.67909 | -79.61554 | 564 ft | 2 kts | 317° |
| 2026-05-05 00:45 | 43.67913 | -79.61558 | 564 ft | 0 kts | 316° |